Aérodrome :
LOGIN :

S'inscrire | Disclaimer

   EN    FR    IT 

 










Légende :    VFR   VFR Marginal   IFR   IFR Intensif   IFR Très Intensif
Visi : 
Plafond : 
>= 8 km
>= 3000ft
5 à 8 km
1000 à 3000 ft
1500m à 5 km
500 à 1000 ft
800 à 1500m
200 à 500 ft
< 800m
< 200 ft
Symboles :   Orages  Brouillard  Fortes neiges  Fortes précipitations  Vent > 20 kt
SIGMETs :   Divers  Orages  Givrage  Turbulence  Onde Orograph.  Cendres Volcan.







- Altitude de l'aérodrome : 1197 ft
- Code IATA : SPM


ETAD - Spangdahlem Ab

DERNIER METAR :
  • 221356Z 05018G23KT 9999 FEW041 02/M05 A3006 RMK AO2A PK WND 06027/42 SLPNO TSNO $

METARs EXPIRÉS :
  • 221318Z 05018G22KT 9999 FEW042 01/M06 A3006 RMK SLPNO TSNO $
  • 221306Z 04019KT 9999 FEW042 01/M06 RMK SLPNO TSNO $
  • 221256Z AUTO 05019KT 9999 FEW042 M M RMK AO2 PK WND 06029/35 SLPNO TSNO $
  • 221156Z 06019G24KT 9999 FEW040 02/M05 A3008 RMK AO2A SLPNO 11004 21036 TSNO $

TAF TAF ETAD
Valide du 22 à 11h jusqu'au 23 à 17h UTC


221104Z 2211/2317 06015G25KT 9999 FEW030 QNH3008INS
BECMG 2300/2301 06010G20KT 9999 FEW030 QNH3005INS TX03/2214Z TNM05/2306Z
Pas de NOTAMs connus pour ce terrain.



MET'MAP, la Météo Aéronautique d'un coup d'oeil ! - Copyright ORBIFLY Décembre 2007 - Disclaimer

ORBIFLY MET'MAP TEAM :

Programmation & Développement : Alexandra Zaïnal
Conception & Développement : Baudouin d'Aumeries
Co-Programmation & Développement : Marc-Olivier Méhu
Soutien technique & logistique : Manuel Goepfert

Contact : metmap@orbifly.com




SOURCES & CREDITS :

   NOAA